KCQM

Cook Municipal Airport

Cook, Minnesota, USA
METAR KCQM 191355Z AUTO 00000KT 10SM CLR M11/M12 A2955 RMK AO2
Observed Flight Rules
Dec-19 @ 13:55 UTC (8 minutes ago) Visual Flight Rules
Visibility Clouds
10 miles
  • Clear skies
Temperatures Readings
Current -11°C / 12°F
Dewpoint -12°C / 10°F
Humidity 92%
Altimeter 29.55" Hg
Pressure 1001 hPa
Elevation 404
METAR KCQM 191355Z AUTO 00000KT 10SM CLR M11/M12 A2955 RMK AO2
Observed Flight Rules
Dec-19 @ 13:55 UTC
(8 minutes ago)
VFR
Clouds
  • Clear skies
Temperature Dewpoint
-11°C / 12°F -12°C / 10°F
Humidity Altimeter Pressure
92% 29.55" Hg 1001 hPa